KSANKSBD

Guest
Details From KSAN - San Diego Intl
To KSBD - San Bernardino Intl
Flight Number -
Tags generated
Created
Modified
Stats Distance 82 nm / 152 km
Max Altitude 600 ft / 183 m
Waypoints 3
Social Downloads 1
Likes 0
Share VATSIM

Download

Looking for another format? Having issues loading an existing format? Contact us
Advertisement - Login to hide

Notes

Basic altitude profile: - Ascent Rate: 200ft/min - Ascent Speed: 250kts - Cruise Altitude: 5000ft - Cruise Speed: 420kts - Descent Rate: 1500ft/min - Descent Speed: 250kts

Route

KSAN RUSTT KSBD

ID Type Via Altitude Latitude Longitude Leg Dist Tot Dist Heading (true) Name
O KSAN APT - 0 ft / 0 m 32.73356˚ -117.18966˚ - 0 nm - San Diego Intl
RUSTT FIX - 600 ft / 183 m 34.04823˚ -117.24245˚ 79 nm 79 nm 358° / 358° -
O KSBD APT - 0 ft / 0 m 34.09534˚ -117.23487˚ 2 nm 81 nm 8° / 8° San Bernardino Intl

Altitude Profile

Advertisement - Login to hide

KSAN

Details ICAO KSAN (SAN)
Name San Diego Intl
Region United States
Timezone America/Los_Angeles (UTC-7.0)
Stats Elevation 17 ft / 5 m (AMSL)
Location 32.733556° -117.189658°
Runways 1
Magnetic Variation 11.488° E

METAR

KSAN 211251Z 20008KT 10SM FEW011 BKN015 OVC035 16/12 A2989 RMK AO2 SLP121 T01560117

Decode

TAF

KSAN 211129Z 2112/2218 19005KT P6SM BKN015 OVC035 TEMPO 2112/2116 5SM -DZ BKN009 FM211600 22005KT P6SM SCT015 BKN025 FM212000 26010KT P6SM BKN025 FM220300 23005KT P6SM BKN018 OVC025 FM220600 VRB04KT P6SM SCT018 OVC025

Decode

Departure Runways

ID Width Length Bearing (true) Bearing (mag) Surface Threshold Offset Overrun Length
09 200 ft / 61 m 9,387 ft / 2,861 m 106.07° 94.58° Asphalt 699 ft / 213 m 269 ft / 82 m
27 200 ft / 61 m 9,387 ft / 2,861 m 286.08° 274.59° Asphalt 1,811 ft / 552 m 0 ft / 0 m

KSBD

Details ICAO KSBD (SBD)
Name San Bernardino Intl
Region United States
Timezone America/Los_Angeles (UTC-7.0)
Stats Elevation 1,157 ft / 353 m (AMSL)
Location 34.095343° -117.234869°
Runways 1
Magnetic Variation 11.753° E

METAR

KSBD 211240Z AUTO 00000KT 2 1/2SM RA SCT009 OVC016 15/13 A2985 RMK AO2 T01500127

Decode

TAF

TAF KSBD 211129Z 2112/2212 VRB03KT 4SM BR SCT008 OVC015 TEMPO 2112/2115 2SM -DZ BKN007 FM211600 VRB04KT 4SM HZ SCT015 OVC022 FM212100 25010KT 5SM HZ SCT025 SCT035 FM220400 24005KT P6SM SCT015 BKN025 FM220700 VRB04KT P6SM OVC015

Decode

Destination Runways

ID Width Length Bearing (true) Bearing (mag) Surface Threshold Offset Overrun Length
06 180 ft / 55 m 9,963 ft / 3,037 m 70.26° 58.51° Asphalt 0 ft / 0 m 1,000 ft / 305 m
24 180 ft / 55 m 9,963 ft / 3,037 m 250.27° 238.52° Asphalt 0 ft / 0 m 1,000 ft / 305 m

Approach Navaids

Runway Type Ident Frequency Range Bearing (true) Bearing (mag) Slope Elevation
06 Localiser ISBD 109.30 MHz 18 nm / 33 km 70.31° 58.56° - 1,086 ft / 331 m (AMSL)
06 Glidescope ISBD 109.30 MHz 10 nm / 19 km 70.27° 58.51° 3.00° 1,157 ft / 353 m (AMSL)

Popular Alternatives